Pickwick Dam, Tennessee
Current Conditions -  °F | °C
As of 10:35 AM on Saturday 20 Dec 2014 (Local Time) from KSNH Reporting Station
Clear Clear  
Wind Chill: 41°   Ceiling: Unl
Heat Index: 45°   Visibility: 10mi
Dew Point: 28°   Wind: 7mph
Humidity: 53%   Direction: 50°NE
Pressure: 30.28"   Gusts: NA
Location:  35.05°N, 88.24°W
Report Text: KSNH 201635Z AUTO 05006KT 10SM CLR 07/M02 A3028 RMK
Loading
Personal Weather Stations






























Interactive Weather Map New forecast layout! Learn more

10-Day Weather Forecast

Advertisements
Track Severe Weather on mobile